South Vienna, Ohio
Current Conditions -  °F | °C
As of 8:35 AM on Friday 19 Dec 2014 (Local Time) from KUYF Reporting Station
Overcast Overcast  
Wind Chill: 20°   Ceiling: 2200
Heat Index: 27°   Visibility: 7mi
Dew Point: 23°   Wind: 6mph
Humidity: 86%   Direction: 310°NW
Pressure: 30.23"   Gusts: NA
Location:  39.93°N, 83.61°W
Report Text: KUYF 191335Z AUTO 31005KT 7SM OVC022 M03/M05 A3023 RMK AO2
Loading
Personal Weather Stations






























Interactive Weather Map New forecast layout! Learn more

10-Day Weather Forecast

Advertisements
Track Severe Weather on mobile